Data for 09/09/2016

Time Sea-Level Adjusted Pressure Absolute Pressure Temperature Relative Humidity Dew Point   
(mb) (inHg) (mb) (inHg) (C) (F) (%) (C) (F)
00:05 1022 30.18 852 25.16 7.2 44.9 54 -1.5 29.3
00:10 1022 30.18 852 25.16 7 44.5 54 -1.7 28.9
00:15 1022 30.18 852 25.16 7 44.6 53 -1.9 28.5
00:20 1022 30.18 852 25.16 7.2 44.9 52 -2.1 28.2
00:25 1022 30.18 852 25.16 7.3 45.1 51 -2.1 28.2
00:30 1022 30.18 852 25.16 7.4 45.4 50 -2.2 28.1
00:35 1022 30.18 852 25.16 7.6 45.6 49 -2.3 27.8
00:40 1023 30.21 852 25.16 7.7 45.9 54 -1.1 30.1
00:45 1023 30.21 852 25.16 7.2 45 56 -0.9 30.5
00:50 1023 30.21 852 25.16 6.4 43.5 57 -1.5 29.3
00:55 1023 30.21 852 25.16 6.3 43.3 58 -1.4 29.4
01:00 1023 30.21 852 25.16 6.4 43.6 57 -1.5 29.2
01:05 1023 30.21 852 25.16 6.7 44 55 -1.6 29
01:10 1023 30.21 852 25.16 6.9 44.5 54 -1.6 29.1
01:15 1023 30.21 852 25.16 7 44.6 54 -1.7 29
01:20 1023 30.21 852 25.16 7.1 44.7 54 -1.5 29.3
01:25 1023 30.21 852 25.16 7 44.6 55 -1.4 29.5
01:30 1023 30.21 852 25.16 6.9 44.3 56 -1.4 29.6
01:35 1023 30.21 852 25.16 6.9 44.5 55 -1.4 29.5
01:40 1023 30.21 853 25.19 7 44.5 57 -1.1 30.1
01:45 1024 30.24 853 25.19 6.8 44.3 57 -1.1 30
01:50 1024 30.24 853 25.19 6.6 44 58 -0.9 30.4
01:55 1024 30.24 853 25.19 6.2 43.1 60 -1.1 30.1
02:00 1024 30.24 853 25.19 6 42.9 60 -1.1 30.1
02:05 1024 30.24 853 25.19 5.9 42.7 61 -1 30.2
02:10 1024 30.24 853 25.19 5.8 42.5 62 -0.9 30.4
02:15 1024 30.24 853 25.19 6 42.8 61 -1 30.3
02:20 1024 30.24 853 25.19 6.5 43.6 59 -0.9 30.4
02:25 1024 30.24 853 25.19 6.8 44.2 60 -0.5 31.1
02:30 1024 30.24 853 25.19 6.8 44.3 60 -0.4 31.4
02:35 1024 30.24 853 25.19 6.9 44.4 61 -0.1 31.8
02:40 1024 30.24 853 25.19 6.9 44.5 61 0 32
02:45 1024 30.24 853 25.19 7 44.6 62 0.2 32.4
02:50 1024 30.24 853 25.19 6.8 44.3 63 0.4 32.7
02:55 1024 30.24 853 25.19 6.8 44.3 62 0.2 32.3
03:00 1024 30.24 853 25.19 7 44.6 63 0.5 32.8
03:05 1024 30.24 853 25.19 7 44.7 64 0.7 33.3
03:10 1024 30.24 854 25.22 7 44.7 66 1.2 34.2
03:15 1024 30.24 854 25.22 7 44.7 67 1.4 34.5
03:20 1024 30.24 854 25.22 7.1 44.7 66 1.2 34.2
03:25 1024 30.24 854 25.22 7.2 44.9 64 0.9 33.7
03:30 1025 30.27 854 25.22 7.3 45.2 64 1 33.8
03:35 1025 30.27 854 25.22 7.4 45.3 64 1 33.7
03:40 1025 30.27 854 25.22 7.4 45.3 64 1.1 34
03:45 1025 30.27 854 25.22 7.4 45.3 65 1.2 34.1
03:50 1025 30.27 854 25.22 7.3 45.2 65 1.2 34.2
03:55 1025 30.27 854 25.22 7.3 45.2 64 1.1 33.9
04:00 1025 30.27 854 25.22 7.3 45.2 65 1.2 34.1
04:05 1025 30.27 854 25.22 7.3 45.1 65 1.2 34.1
04:10 1025 30.27 855 25.25 7.3 45.1 66 1.3 34.3
04:15 1025 30.27 855 25.25 7.3 45.1 65 1.2 34.1
04:20 1026 30.3 855 25.25 7.2 45 65 1.2 34.1
04:25 1026 30.3 855 25.25 7.2 44.9 66 1.3 34.4
04:30 1026 30.3 855 25.25 7.2 44.9 65 1.1 34
04:35 1026 30.3 855 25.25 7.2 45 65 1.1 34
04:40 1026 30.3 855 25.25 7.3 45.1 64 1 33.8
04:45 1026 30.3 855 25.25 7.3 45.1 65 1.1 34.1
04:50 1026 30.3 855 25.25 7.2 45 66 1.2 34.2
04:55 1026 30.3 855 25.25 7.2 45 65 1.1 34
05:00 1026 30.3 855 25.25 7.3 45.1 65 1.1 34
05:05 1026 30.3 855 25.25 7.2 45 65 1.2 34.1
05:10 1026 30.3 855 25.25 7.2 44.9 66 1.3 34.3
05:15 1026 30.3 855 25.25 7.1 44.7 67 1.4 34.5
05:20 1026 30.3 855 25.25 7.1 44.7 67 1.4 34.5
05:25 1026 30.3 856 25.28 7 44.6 67 1.4 34.4
05:30 1026 30.3 856 25.28 7 44.6 67 1.3 34.4
05:35 1026 30.3 856 25.28 7 44.6 67 1.2 34.2
05:40 1026 30.3 856 25.28 7.1 44.7 66 1.1 33.9
05:45 1026 30.3 856 25.28 7.1 44.8 65 1 33.8
05:50 1027 30.33 856 25.28 7.1 44.7 65 1 33.9
05:55 1027 30.33 856 25.28 7.1 44.8 65 1.1 34
06:00 1027 30.33 856 25.28 7.1 44.8 66 1.2 34.2
06:05 1027 30.33 856 25.28 7.1 44.8 66 1.3 34.3
06:10 1027 30.33 856 25.28 7.1 44.7 67 1.4 34.5
06:15 1027 30.33 856 25.28 7 44.7 67 1.4 34.6
06:20 1027 30.33 856 25.28 7 44.6 68 1.5 34.7
06:25 1027 30.33 856 25.28 6.9 44.5 68 1.4 34.5
06:30 1027 30.33 857 25.31 6.9 44.4 68 1.4 34.5
06:35 1027 30.33 857 25.31 6.9 44.4 68 1.4 34.5
06:40 1027 30.33 857 25.31 6.9 44.3 69 1.6 34.8
06:45 1027 30.33 857 25.31 6.8 44.3 69 1.6 34.9
06:50 1028 30.36 857 25.31 6.8 44.2 72 2.1 35.8
06:55 1028 30.36 857 25.31 6.7 44 73 2.3 36.1
07:00 1028 30.36 857 25.31 6.5 43.8 69 1.3 34.3
07:05 1028 30.36 857 25.31 6.8 44.2 69 1.4 34.6
07:10 1028 30.36 857 25.31 7.1 44.7 70 1.9 35.5
07:15 1028 30.36 857 25.31 7.1 44.7 69 1.8 35.2
07:20 1028 30.36 857 25.31 7.5 45.4 67 1.6 35
07:25 1028 30.36 857 25.31 7.6 45.7 62 0.9 33.6
07:30 1028 30.36 857 25.31 7.7 45.9 63 1.1 34.1
07:35 1028 30.36 857 25.31 8 46.5 62 1.2 34.1
07:40 1028 30.36 857 25.31 8.7 47.7 60 1.4 34.6
07:45 1028 30.36 857 25.31 9.1 48.4 59 1.5 34.6
07:50 1028 30.36 857 25.31 9.5 49 56 1.2 34.1
07:55 1028 30.36 857 25.31 8.9 47.9 59 1.3 34.3
08:00 1028 30.36 857 25.31 8.7 47.7 59 1.1 34
08:05 1028 30.36 857 25.31 9.4 48.9 56 1.1 34
08:10 1028 30.36 858 25.34 10.3 50.5 53 1.3 34.3
08:15 1028 30.36 858 25.34 10.5 50.9 54 1.7 35.1
08:20 1028 30.36 858 25.34 10.2 50.3 54 1.5 34.6
08:25 1028 30.36 858 25.34 9.7 49.4 57 1.5 34.8
08:30 1029 30.39 858 25.34 9.7 49.4 54 0.9 33.6
08:35 1029 30.39 858 25.34 10.4 50.8 54 1.7 35
08:40 1029 30.39 858 25.34 10.5 51 51 0.9 33.6
08:45 1029 30.39 858 25.34 10.6 51 55 1.9 35.5
08:50 1029 30.39 858 25.34 10 49.9 57 1.9 35.5
08:55 1029 30.39 858 25.34 8.9 47.9 59 1.4 34.5
09:00 1029 30.39 858 25.34 8.6 47.4 61 1.6 34.8
09:05 1029 30.39 858 25.34 8.6 47.4 61 1.5 34.6
09:10 1029 30.39 858 25.34 9 48.1 56 0.7 33.2
09:15 1029 30.39 858 25.34 10.4 50.7 50 0.5 32.9
09:20 1029 30.39 858 25.34 11 51.8 46 -0 32
09:25 1029 30.39 858 25.34 11.8 53.2 44 0.1 32.2
09:30 1029 30.39 858 25.34 12.1 53.8 46 0.7 33.3
09:35 1029 30.39 858 25.34 11.6 52.8 46 0.4 32.7
09:40 1029 30.39 858 25.34 11.5 52.6 47 0.7 33.3
09:45 1029 30.39 858 25.34 11.1 52 47 0.2 32.3
09:50 1029 30.39 858 25.34 11.2 52.2 45 -0.1 31.8
09:55 1029 30.39 858 25.34 11.3 52.4 47 0.4 32.6
10:00 1029 30.39 858 25.34 11 51.7 47 -0 32
10:05 1029 30.39 858 25.34 11.7 53 43 -0.3 31.4
10:10 1029 30.39 858 25.34 12 53.6 44 0.2 32.4
10:15 1029 30.39 858 25.34 11.7 53.1 45 0.3 32.5
10:20 1029 30.39 858 25.34 11.8 53.2 44 -0.1 31.9
10:25 1029 30.39 858 25.34 11.5 52.8 46 0.5 32.8
10:30 1029 30.39 858 25.34 11.5 52.7 43 -0.5 31.1
10:35 1029 30.39 858 25.34 12.8 55.1 42 0.1 32.3
10:40 1029 30.39 858 25.34 13.4 56 39 -0.3 31.5
10:45 1029 30.39 858 25.34 13.2 55.7 39 -0.4 31.3
10:50 1029 30.39 858 25.34 12.9 55.2 41 -0.1 31.8
10:55 1029 30.39 858 25.34 13.4 56.1 38 -0.4 31.2
11:00 1029 30.39 858 25.34 13.8 56.9 38 -0.1 31.8
11:05 1029 30.39 858 25.34 13.6 56.5 39 0 32.1
11:10 1029 30.39 858 25.34 14.2 57.6 36 -0.4 31.3
11:15 1029 30.39 858 25.34 14.4 58 35 -0.7 30.8
11:20 1029 30.39 858 25.34 14.6 58.2 35 -0.8 30.6
11:25 1029 30.39 858 25.34 14.7 58.5 34 -0.8 30.6
11:30 1029 30.39 858 25.34 14.3 57.8 37 -0 31.9
11:35 1029 30.39 858 25.34 13.9 57.1 38 -0.2 31.7
11:40 1029 30.39 858 25.34 13.7 56.6 37 -0.8 30.5
11:45 1029 30.39 858 25.34 13.8 56.8 35 -1.2 29.8
11:50 1029 30.39 858 25.34 13.9 57.1 35 -1.4 29.5
11:55 1029 30.39 858 25.34 14.2 57.5 37 -0.2 31.7
12:00 1029 30.39 858 25.34 12.9 55.1 37 -1.4 29.5
12:05 1029 30.39 858 25.34 14.3 57.7 33 -1.6 29.1
12:10 1029 30.39 858 25.34 14.6 58.3 34 -1.1 30
12:15 1029 30.39 858 25.34 15.1 59.1 32 -1.5 29.3
12:20 1029 30.39 858 25.34 15.6 60.1 31 -1.4 29.5
12:25 1029 30.39 858 25.34 14.9 58.9 33 -1.3 29.7
12:30 1029 30.39 858 25.34 14.9 58.8 32 -1.4 29.5
12:35 1028 30.36 858 25.34 15 59 32 -1.3 29.7
12:40 1028 30.36 858 25.34 15.5 59.9 32 -1.1 30
12:45 1028 30.36 858 25.34 15.5 59.9 32 -1.2 29.8
12:50 1028 30.36 858 25.34 15.8 60.4 32 -0.7 30.7
12:55 1028 30.36 858 25.34 15.5 60 33 -0.6 30.9
13:00 1028 30.36 858 25.34 15.8 60.5 32 -0.6 31
13:05 1028 30.36 858 25.34 15.1 59.1 35 -0.2 31.6
13:10 1028 30.36 858 25.34 15.4 59.7 32 -1.2 29.9
13:15 1028 30.36 858 25.34 15.4 59.7 33 -0.7 30.7
13:20 1028 30.36 858 25.34 14.7 58.4 35 -0.4 31.3
13:25 1028 30.36 858 25.34 14.9 58.8 34 -0.7 30.7
13:30 1028 30.36 858 25.34 14.7 58.4 33 -1.2 29.8
13:35 1028 30.36 857 25.31 15.1 59.1 33 -0.9 30.4
13:40 1028 30.36 857 25.31 15.9 60.7 30 -1.3 29.6
13:45 1028 30.36 857 25.31 16.4 61.4 30 -1.3 29.6
13:50 1028 30.36 857 25.31 16.2 61.1 29 -1.8 28.8
13:55 1028 30.36 857 25.31 15.3 59.6 31 -1.5 29.2
14:00 1028 30.36 857 25.31 15.9 60.7 29 -2.1 28.3
14:05 1028 30.36 857 25.31 16 60.8 31 -1.2 29.9
14:10 1028 30.36 857 25.31 16.5 61.7 29 -1.6 29.1
14:15 1028 30.36 857 25.31 16.4 61.5 28 -2.3 27.9
14:20 1028 30.36 857 25.31 15.9 60.7 30 -1.5 29.4
14:25 1028 30.36 857 25.31 15.9 60.6 29 -1.8 28.8
14:30 1028 30.36 857 25.31 16.6 61.9 29 -1.6 29.2
14:35 1028 30.36 857 25.31 16.7 62.1 27 -2 28.4
14:40 1028 30.36 857 25.31 15.7 60.3 31 -1.2 29.8
14:45 1028 30.36 857 25.31 16.1 60.9 28 -2.2 28.1
14:50 1028 30.36 857 25.31 16.8 62.2 28 -1.7 29
14:55 1028 30.36 857 25.31 16.9 62.5 28 -1.6 29.2
15:00 1028 30.36 857 25.31 16.6 61.9 29 -1.4 29.5
15:05 1028 30.36 857 25.31 16.4 61.6 29 -1.7 28.9
15:10 1028 30.36 857 25.31 16.3 61.3 29 -1.6 29.1
15:15 1028 30.36 857 25.31 16.6 61.8 28 -1.7 28.9
15:20 1028 30.36 857 25.31 16 60.8 28 -2.2 28.1
15:25 1028 30.36 857 25.31 15.5 59.9 28 -2.6 27.3
15:30 1028 30.36 857 25.31 15.9 60.7 29 -1.8 28.8
15:35 1028 30.36 857 25.31 16.8 62.2 28 -1.5 29.2
15:40 1028 30.36 857 25.31 16.5 61.7 29 -1.6 29
15:45 1028 30.36 857 25.31 15.5 59.9 29 -2.1 28.1
15:50 1028 30.36 857 25.31 16.2 61.1 29 -1.8 28.8
15:55 1028 30.36 857 25.31 17 62.7 27 -2.2 28.1
16:00 1028 30.36 857 25.31 17.3 63.2 27 -1.6 29.1
16:05 1028 30.36 857 25.31 16.8 62.3 29 -1.3 29.7
16:10 1027 30.33 857 25.31 16.7 62 27 -2.3 27.8
16:15 1027 30.33 857 25.31 16 60.8 28 -2.3 27.9
16:20 1027 30.33 857 25.31 16 60.8 27 -2.8 27
16:25 1027 30.33 857 25.31 16.8 62.3 26 -2.7 27.2
16:30 1027 30.33 857 25.31 16.6 61.8 28 -2.1 28.2
16:35 1027 30.33 856 25.28 16.3 61.3 27 -2.5 27.5
16:40 1027 30.33 856 25.28 16.8 62.2 27 -2.4 27.7
16:45 1027 30.33 856 25.28 16.7 62 27 -2.4 27.8
16:50 1027 30.33 856 25.28 16.1 61 28 -2.3 27.8
16:55 1027 30.33 856 25.28 16.8 62.3 27 -2.3 27.9
17:00 1027 30.33 856 25.28 17.2 62.9 27 -1.9 28.5
17:05 1027 30.33 856 25.28 16.9 62.4 27 -2.1 28.2
17:10 1027 30.33 856 25.28 15.9 60.6 29 -2 28.3
17:15 1027 30.33 856 25.28 16 60.8 28 -2.3 27.9
17:20 1027 30.33 856 25.28 15.4 59.7 29 -2.3 27.9
17:25 1027 30.33 856 25.28 15.2 59.3 29 -2.5 27.5
17:30 1027 30.33 856 25.28 15.4 59.8 29 -2.5 27.5
17:35 1027 30.33 856 25.28 15.4 59.7 30 -2.2 28
17:40 1027 30.33 856 25.28 15.2 59.3 29 -2.5 27.6
17:45 1027 30.33 856 25.28 15.1 59.1 30 -2.4 27.6
17:50 1027 30.33 856 25.28 15 59 30 -2.5 27.5
17:55 1027 30.33 856 25.28 15.2 59.3 29 -2.4 27.6
18:00 1027 30.33 856 25.28 15.2 59.4 30 -2.2 28
18:05 1027 30.33 856 25.28 15 59.1 31 -2.1 28.3
18:10 1027 30.33 856 25.28 15 59 30 -2.6 27.4
18:15 1027 30.33 856 25.28 14.9 58.8 30 -2.3 27.9
18:20 1027 30.33 856 25.28 14.8 58.6 32 -1.8 28.8
18:25 1027 30.33 856 25.28 14.6 58.3 31 -2.4 27.7
18:30 1027 30.33 856 25.28 14.6 58.3 31 -2.3 27.9
18:35 1027 30.33 856 25.28 14.6 58.4 31 -2.3 27.8
18:40 1027 30.33 856 25.28 14.6 58.3 33 -1.5 29.3
18:45 1027 30.33 856 25.28 14.5 58.1 36 -0.4 31.3
18:50 1027 30.33 856 25.28 14.4 57.9 37 0 32.1
18:55 1027 30.33 856 25.28 13.8 56.8 42 1.2 34.2
19:00 1027 30.33 856 25.28 13.1 55.5 44 1.3 34.3
19:05 1027 30.33 856 25.28 12.5 54.6 46 1.2 34.2
19:10 1027 30.33 856 25.28 12.1 53.9 46 0.9 33.6
19:15 1027 30.33 856 25.28 11.8 53.2 46 0.7 33.2
19:20 1027 30.33 856 25.28 11.5 52.7 48 1 33.8
19:25 1027 30.33 856 25.28 11.2 52.2 48 0.8 33.4
19:30 1027 30.33 856 25.28 11 51.9 49 0.9 33.5
19:35 1027 30.33 856 25.28 10.6 51.1 51 1 33.7
19:40 1027 30.33 856 25.28 10.3 50.6 51 0.7 33.3
19:45 1026 30.3 856 25.28 10.4 50.7 51 0.7 33.3
19:50 1026 30.3 856 25.28 10.4 50.6 51 0.6 33.1
19:55 1026 30.3 856 25.28 10.1 50.1 53 1.1 34
20:00 1026 30.3 856 25.28 9.6 49.2 56 1.3 34.3
20:05 1026 30.3 856 25.28 9.2 48.6 57 1.1 33.9
20:10 1026 30.3 856 25.28 9 48.2 58 1.2 34.2
20:15 1026 30.3 856 25.28 8.9 48 57 0.9 33.5
20:20 1026 30.3 856 25.28 8.9 48 55 0.3 32.6
20:25 1026 30.3 856 25.28 9.1 48.3 54 0.2 32.4
20:30 1026 30.3 856 25.28 9 48.2 54 0.2 32.4
20:35 1026 30.3 856 25.28 9 48.2 53 -0.1 31.8
20:40 1026 30.3 856 25.28 9.1 48.4 51 -0.4 31.3
20:45 1026 30.3 856 25.28 9.2 48.6 50 -0.7 30.7
20:50 1026 30.3 856 25.28 9.5 49.1 48 -1 30.2
20:55 1026 30.3 856 25.28 9.6 49.3 47 -1 30.2
21:00 1026 30.3 856 25.28 9.6 49.2 46 -1.5 29.3
21:05 1026 30.3 856 25.28 9.7 49.4 46 -1.3 29.6
21:10 1026 30.3 856 25.28 9.6 49.2 47 -1.1 30.1
21:15 1026 30.3 856 25.28 9.3 48.8 47 -1.4 29.5
21:20 1026 30.3 856 25.28 9.3 48.8 47 -1.3 29.7
21:25 1026 30.3 856 25.28 9.5 49 46 -1.6 29.1
21:30 1026 30.3 856 25.28 9.7 49.5 43 -2.2 28.1
21:35 1026 30.3 856 25.28 9.7 49.4 44 -1.9 28.5
21:40 1026 30.3 856 25.28 9.5 49 45 -1.9 28.5
21:45 1026 30.3 856 25.28 9.2 48.5 46 -1.7 28.9
21:50 1026 30.3 856 25.28 9 48.2 44 -2.4 27.6
21:55 1026 30.3 856 25.28 9 48.2 47 -1.7 29
22:00 1026 30.3 856 25.28 8.8 47.8 44 -2.8 27
22:05 1026 30.3 856 25.28 9.4 48.9 42 -2.9 26.8
22:10 1026 30.3 856 25.28 9.5 49.1 43 -2.6 27.4
22:15 1026 30.3 855 25.25 9.3 48.7 43 -2.7 27.2
22:20 1026 30.3 855 25.25 9.1 48.3 44 -2.4 27.7
22:25 1026 30.3 855 25.25 8.7 47.7 46 -2.2 28
22:30 1026 30.3 855 25.25 8.4 47.2 48 -2 28.3
22:35 1026 30.3 855 25.25 8.2 46.8 46 -2.6 27.4
22:40 1026 30.3 855 25.25 8.4 47.1 45 -2.8 27
22:45 1026 30.3 855 25.25 8.6 47.5 43 -3.2 26.3
22:50 1026 30.3 855 25.25 8.8 47.8 43 -3.1 26.5
22:55 1026 30.3 855 25.25 8.7 47.6 44 -2.9 26.8
23:00 1026 30.3 855 25.25 8.6 47.4 44 -2.9 26.7
23:05 1026 30.3 855 25.25 8.6 47.5 44 -3 26.5
23:10 1026 30.3 855 25.25 8.8 47.8 43 -3.2 26.2
23:15 1026 30.3 855 25.25 8.8 47.9 45 -2.6 27.4
23:20 1026 30.3 855 25.25 8.8 47.8 43 -3.1 26.3
23:25 1026 30.3 855 25.25 8.6 47.5 46 -2.4 27.6
23:30 1026 30.3 855 25.25 8.2 46.8 44 -3.3 26.1
23:35 1026 30.3 855 25.25 8.3 47 44 -3.1 26.4
23:40 1026 30.3 855 25.25 8.6 47.5 45 -2.7 27.1
23:45 1026 30.3 855 25.25 8.1 46.6 49 -1.9 28.5
23:50 1026 30.3 855 25.25 7.6 45.7 52 -1.5 29.2
23:55 1026 30.3 855 25.25 7.2 44.9 50 -2.4 27.7
24:00 1026 30.3 855 25.25 7.2 44.9 52 -2.1 28.2